Claremont, South Dakota
Current Conditions -  °F | °C
As of 10:40 PM on Thursday 18 Dec 2014 (Local Time) from KABR Reporting Station
Overcast Overcast  
Wind Chill: 18°   Ceiling: 1500
Heat Index: 27°   Visibility: 8mi
Dew Point: 23°   Wind: 9mph
Humidity: 85%   Direction: 180°S
Pressure: 30.12"   Gusts: NA
Location:  45.67°N, 98.02°W
Report Text: KABR 190440Z AUTO 18008KT 8SM OVC015 M03/M05 A3012 RMK AO2 T10281050
Loading
Personal Weather Stations






























Interactive Weather Map New forecast layout! Learn more

10-Day Weather Forecast

Advertisements
Track Severe Weather on mobile